Time;durP1;ratioP1;P1;durP2;ratioP2;P2;SDS_P1;SDS_P2;PMS_P1;PMS_P2;Temp;Humidity;BMP_temperature;BMP_pressure;BME280_temperature;BME280_humidity;BME280_pressure;Samples;Min_cycle;Max_cycle;Signal;HPM_P1;HPM_P2
2021/03/06 00:01:16;;;;;;;2.77;1.92;;;-0.20;99.90;;;;;;1916192;73;21171;-72
2021/03/06 00:03:43;;;;;;;2.77;1.32;;;-0.20;99.90;;;;;;1930190;73;21076;-72
2021/03/06 00:06:09;;;;;;;3.35;2.10;;;-0.30;99.90;;;;;;1922558;73;21096;-73
2021/03/06 00:08:35;;;;;;;1.65;1.42;;;-0.30;99.90;;;;;;1925529;72;21480;-73
2021/03/06 00:11:01;;;;;;;6.50;1.77;;;-0.40;99.90;;;;;;1922285;73;21480;-74
2021/03/06 00:13:27;;;;;;;2.95;1.42;;;-0.40;99.90;;;;;;1925253;73;21477;-73
2021/03/06 00:15:53;;;;;;;1.25;1.15;;;-0.20;99.90;;;;;;1926928;72;21469;-74
2021/03/06 00:18:19;;;;;;;2.00;1.55;;;-0.20;99.90;;;;;;1920555;73;21073;-73
2021/03/06 00:20:45;;;;;;;3.47;2.08;;;-0.20;99.90;;;;;;1920747;73;21077;-73
2021/03/06 00:23:12;;;;;;;4.12;1.80;;;-0.30;99.90;;;;;;1926592;73;21146;-74
2021/03/06 00:25:38;;;;;;;2.87;1.52;;;-0.30;99.90;;;;;;1927672;72;21054;-75
2021/03/06 00:28:04;;;;;;;1.45;1.32;;;-0.40;99.90;;;;;;1922069;72;21153;-73
2021/03/06 00:30:30;;;;;;;1.65;1.25;;;-0.40;99.90;;;;;;1920306;72;21076;-73
2021/03/06 00:32:56;;;;;;;3.77;1.45;;;-0.40;99.90;;;;;;1926596;73;21134;-73
2021/03/06 00:35:22;;;;;;;1.60;1.50;;;-0.30;99.90;;;;;;1926544;73;21154;-71
2021/03/06 00:37:48;;;;;;;1.65;1.55;;;-0.30;99.90;;;;;;1925067;73;21120;-73
2021/03/06 00:40:14;;;;;;;2.12;1.27;;;-0.40;99.90;;;;;;1925655;72;21170;-74
2021/03/06 00:42:41;;;;;;;3.95;1.98;;;-0.40;99.90;;;;;;1935955;73;21137;-73
2021/03/06 00:45:07;;;;;;;3.77;1.42;;;-0.50;99.90;;;;;;1915540;73;21163;-72
2021/03/06 00:47:33;;;;;;;2.80;1.32;;;-0.50;99.90;;;;;;1929517;72;21037;-73
2021/03/06 00:49:59;;;;;;;2.15;1.25;;;-0.50;99.90;;;;;;1925015;73;21120;-72
2021/03/06 00:52:25;;;;;;;3.58;1.77;;;-0.60;99.90;;;;;;1915329;74;21077;-74
2021/03/06 00:54:51;;;;;;;1.40;1.30;;;-0.60;99.90;;;;;;1915528;73;21489;-73
2021/03/06 00:57:17;;;;;;;1.52;1.42;;;-0.60;99.90;;;;;;1920166;72;21450;-73
2021/03/06 00:59:43;;;;;;;5.62;1.87;;;-0.70;99.90;;;;;;1919212;73;21441;-73
2021/03/06 01:02:09;;;;;;;3.15;1.60;;;-0.70;99.90;;;;;;1916247;73;21631;-73
2021/03/06 01:04:36;;;;;;;2.05;1.87;;;-0.80;99.90;;;;;;1920234;72;21253;-73
2021/03/06 01:07:02;;;;;;;1.75;1.57;;;-0.80;99.90;;;;;;1920144;73;21081;-75
2021/03/06 01:09:28;;;;;;;2.52;2.00;;;-0.80;99.90;;;;;;1915437;73;21147;-72
2021/03/06 01:11:54;;;;;;;1.47;1.37;;;-0.80;99.90;;;;;;1920145;73;21063;-74
2021/03/06 01:14:20;;;;;;;4.12;2.05;;;-0.80;99.90;;;;;;1920216;73;21154;-73
2021/03/06 01:16:46;;;;;;;7.33;1.60;;;-0.90;99.90;;;;;;1920097;73;21162;-74
2021/03/06 01:19:12;;;;;;;1.62;1.32;;;-0.90;99.90;;;;;;1920070;73;21155;-73
2021/03/06 01:21:39;;;;;;;2.67;1.50;;;-0.90;99.90;;;;;;1926375;72;21162;-73
2021/03/06 01:24:05;;;;;;;3.02;1.92;;;-0.90;99.90;;;;;;1928882;72;21041;-71
2021/03/06 01:26:31;;;;;;;2.98;1.98;;;-0.90;99.90;;;;;;1925366;72;21480;-73
2021/03/06 01:28:57;;;;;;;1.50;1.40;;;-1.00;99.90;;;;;;1924843;72;21492;-72
2021/03/06 01:31:23;;;;;;;1.57;1.47;;;-1.00;99.90;;;;;;1915578;73;21496;-73
2021/03/06 01:33:49;;;;;;;3.22;1.55;;;-1.00;99.90;;;;;;1915614;73;21504;-73
2021/03/06 01:36:15;;;;;;;1.62;1.52;;;-1.00;99.90;;;;;;1925117;72;21041;-74
2021/03/06 01:38:41;;;;;;;1.30;1.20;;;-1.00;99.90;;;;;;1930038;73;21158;-73
2021/03/06 01:41:07;;;;;;;2.65;1.70;;;-0.90;99.90;;;;;;1930349;73;21081;-73
2021/03/06 01:43:34;;;;;;;1.60;1.50;;;-1.00;99.90;;;;;;1924256;72;21163;-73
2021/03/06 01:46:00;;;;;;;1.45;1.35;;;-0.90;99.90;;;;;;1921962;72;21154;-73
2021/03/06 01:48:26;;;;;;;1.98;1.77;;;-1.00;99.90;;;;;;1934026;72;21158;-73
2021/03/06 01:50:52;;;;;;;1.50;1.30;;;-1.00;99.90;;;;;;1927306;73;21064;-73
2021/03/06 01:53:18;;;;;;;1.82;1.40;;;-1.00;99.90;;;;;;1920745;73;21076;-74
2021/03/06 01:55:44;;;;;;;1.40;1.30;;;-1.00;99.90;;;;;;1915943;73;21080;-73
2021/03/06 01:58:10;;;;;;;4.12;1.40;;;-1.00;99.90;;;;;;1928570;72;21500;-75
2021/03/06 02:00:37;;;;;;;1.50;1.40;;;-1.10;99.90;;;;;;1916842;73;21445;-73
2021/03/06 02:03:04;;;;;;;1.87;1.65;;;-1.10;99.90;;;;;;1925032;74;21156;-74
2021/03/06 02:05:30;;;;;;;3.35;1.90;;;-1.10;99.90;;;;;;1925376;73;21088;-74
2021/03/06 02:07:56;;;;;;;4.85;1.90;;;-1.20;99.90;;;;;;1920214;74;21158;-73
2021/03/06 02:10:25;;;;;;;1.52;1.42;;;-1.20;99.90;;;;;;1928140;72;21162;-74
2021/03/06 02:12:50;;;;;;;1.72;1.45;;;-1.40;99.90;;;;;;1921145;72;21138;-74
2021/03/06 02:15:16;;;;;;;1.92;1.45;;;-1.40;99.90;;;;;;1928708;72;21115;-74
2021/03/06 02:17:43;;;;;;;1.27;1.20;;;-1.50;99.90;;;;;;1922622;73;21198;-73
2021/03/06 02:20:09;;;;;;;1.42;1.32;;;-1.50;99.90;;;;;;1921709;72;21535;-73
2021/03/06 02:22:36;;;;;;;1.62;1.52;;;-1.50;99.90;;;;;;1925194;72;21158;-73
2021/03/06 02:25:02;;;;;;;4.45;1.27;;;-1.50;99.90;;;;;;1915571;73;21084;-73
2021/03/06 02:27:28;;;;;;;1.92;1.55;;;-1.50;99.90;;;;;;1931785;73;21493;-75
2021/03/06 02:29:54;;;;;;;2.65;1.42;;;-1.60;99.90;;;;;;1934590;72;21549;-76
2021/03/06 02:32:21;;;;;;;2.35;1.85;;;-1.50;99.90;;;;;;1936748;72;21057;-75
2021/03/06 02:34:47;;;;;;;3.45;1.55;;;-1.60;99.90;;;;;;1929213;72;21072;-73
2021/03/06 02:37:13;;;;;;;2.02;1.57;;;-1.60;99.90;;;;;;1931403;72;21219;-74
2021/03/06 02:39:39;;;;;;;7.08;2.00;;;-1.70;99.90;;;;;;1922699;73;21088;-73
2021/03/06 02:42:05;;;;;;;2.40;1.85;;;-1.60;99.90;;;;;;1922016;73;21049;-74
2021/03/06 02:44:31;;;;;;;1.72;1.62;;;-1.70;99.90;;;;;;1921828;73;21068;-76
2021/03/06 02:46:57;;;;;;;2.70;1.50;;;-1.80;99.90;;;;;;1920327;73;21146;-73
2021/03/06 02:49:23;;;;;;;2.55;1.92;;;-1.60;99.90;;;;;;1927066;72;21096;-73
2021/03/06 02:51:50;;;;;;;1.77;1.62;;;-1.70;99.90;;;;;;1919495;72;21078;-72
2021/03/06 02:54:16;;;;;;;1.20;1.10;;;-1.70;99.90;;;;;;1926244;72;21077;-72
2021/03/06 02:56:42;;;;;;;4.97;1.87;;;-1.80;99.90;;;;;;1925036;73;21072;-73
2021/03/06 02:59:08;;;;;;;2.77;1.50;;;-1.80;99.90;;;;;;1926362;73;21049;-73
2021/03/06 03:01:35;;;;;;;2.40;1.60;;;-1.90;99.90;;;;;;1921727;72;21150;-73
2021/03/06 03:04:01;;;;;;;3.22;1.35;;;-1.90;99.90;;;;;;1924806;73;21585;-74
2021/03/06 03:06:27;;;;;;;2.92;1.92;;;-1.80;99.90;;;;;;1930000;72;21076;-73
2021/03/06 03:08:54;;;;;;;3.60;1.90;;;-1.80;99.90;;;;;;1920883;73;21088;-74
2021/03/06 03:11:20;;;;;;;2.05;1.70;;;-1.90;99.90;;;;;;1925023;73;21084;-74
2021/03/06 03:13:46;;;;;;;1.55;1.30;;;-1.80;99.90;;;;;;1915505;74;21097;-73
2021/03/06 03:16:12;;;;;;;1.40;1.30;;;-1.90;99.90;;;;;;1943471;72;21069;-75
2021/03/06 03:18:38;;;;;;;2.05;1.82;;;-1.90;99.90;;;;;;1925035;73;21065;-72
2021/03/06 03:21:04;;;;;;;2.42;1.40;;;-2.00;99.90;;;;;;1928160;72;21492;-73
2021/03/06 03:23:30;;;;;;;4.55;1.62;;;-1.90;99.90;;;;;;1920255;73;21155;-73
2021/03/06 03:25:57;;;;;;;1.77;1.12;;;-2.00;99.90;;;;;;1925022;72;21142;-74
2021/03/06 03:28:23;;;;;;;1.57;1.32;;;-2.00;99.90;;;;;;1929773;72;21045;-74
2021/03/06 03:30:49;;;;;;;3.50;1.30;;;-2.00;99.90;;;;;;1925113;72;21284;-74
2021/03/06 03:33:15;;;;;;;3.00;1.60;;;-2.00;99.90;;;;;;1920818;72;21081;-73
2021/03/06 03:35:41;;;;;;;1.67;1.57;;;-1.80;99.90;;;;;;1920356;74;21080;-74
2021/03/06 03:38:07;;;;;;;1.55;1.45;;;-1.70;99.90;;;;;;1928030;73;21180;-73
2021/03/06 03:40:34;;;;;;;3.12;1.82;;;-1.70;99.90;;;;;;1935832;72;21803;-73
2021/03/06 03:43:00;;;;;;;3.98;1.57;;;-1.70;99.90;;;;;;1934069;73;21151;-73
2021/03/06 03:45:26;;;;;;;1.40;1.20;;;-1.90;99.90;;;;;;1937628;72;21080;-73
2021/03/06 03:47:52;;;;;;;2.30;1.50;;;-2.00;99.90;;;;;;1928725;72;21084;-74
2021/03/06 03:50:18;;;;;;;3.62;1.82;;;-2.00;99.90;;;;;;1920550;73;21073;-73
2021/03/06 03:52:44;;;;;;;2.30;1.52;;;-2.00;99.90;;;;;;1925216;74;21193;-75
2021/03/06 03:55:10;;;;;;;1.77;1.67;;;-2.10;99.90;;;;;;1920979;73;21119;-73
2021/03/06 03:57:37;;;;;;;4.42;2.37;;;-2.20;99.90;;;;;;1936111;73;21143;-75
2021/03/06 04:00:03;;;;;;;2.27;1.62;;;-2.20;99.90;;;;;;1921756;72;21104;-73
2021/03/06 04:02:29;;;;;;;1.42;1.32;;;-2.10;99.90;;;;;;1932935;72;21072;-72
2021/03/06 04:04:55;;;;;;;2.65;1.37;;;-2.10;99.90;;;;;;1930706;74;21138;-74
2021/03/06 04:07:21;;;;;;;1.62;1.30;;;-2.10;99.90;;;;;;1919462;74;21077;-75
2021/03/06 04:09:47;;;;;;;1.50;1.40;;;-2.10;99.90;;;;;;1920416;73;21049;-74
2021/03/06 04:12:13;;;;;;;1.65;1.55;;;-2.20;99.90;;;;;;1920422;74;21041;-74
2021/03/06 04:14:40;;;;;;;1.87;1.45;;;-2.20;99.90;;;;;;1929813;72;21080;-75
2021/03/06 04:17:06;;;;;;;2.00;1.70;;;-2.10;99.90;;;;;;1925004;72;21154;-75
2021/03/06 04:19:32;;;;;;;2.45;1.70;;;-2.20;99.90;;;;;;1937999;72;21153;-74
2021/03/06 04:21:58;;;;;;;2.22;1.45;;;-2.30;99.90;;;;;;1921288;73;21590;-74
2021/03/06 04:24:24;;;;;;;1.80;1.30;;;-2.20;99.90;;;;;;1930382;72;21429;-74
2021/03/06 04:26:50;;;;;;;1.45;1.35;;;-2.20;99.90;;;;;;1924755;72;21562;-75
2021/03/06 04:29:16;;;;;;;1.52;1.42;;;-2.30;99.90;;;;;;1922921;73;21084;-74
2021/03/06 04:31:42;;;;;;;2.62;1.37;;;-2.20;99.90;;;;;;1916049;73;21068;-75
2021/03/06 04:34:08;;;;;;;1.98;1.77;;;-2.20;99.90;;;;;;1915924;73;21138;-74
2021/03/06 04:36:35;;;;;;;2.37;1.82;;;-2.10;99.90;;;;;;1930030;72;21029;-74
2021/03/06 04:39:01;;;;;;;2.17;1.98;;;-2.10;99.90;;;;;;1917623;73;21088;-75
2021/03/06 04:41:27;;;;;;;2.33;1.80;;;-2.10;99.90;;;;;;1929921;72;21073;-75
2021/03/06 04:43:53;;;;;;;2.67;2.15;;;-2.10;99.90;;;;;;1923858;73;21069;-74
2021/03/06 04:46:21;;;;;;;1.95;1.75;;;-2.10;99.90;;;;;;1921164;73;21081;-74
2021/03/06 04:48:47;;;;;;;1.92;1.72;;;-2.10;99.90;;;;;;1921449;73;21057;-74
2021/03/06 04:51:13;;;;;;;2.83;1.80;;;-2.10;99.90;;;;;;1927007;72;21146;-73
2021/03/06 04:53:39;;;;;;;3.52;2.05;;;-2.20;99.90;;;;;;1920723;73;21069;-74
2021/03/06 04:56:05;;;;;;;1.92;1.70;;;-2.20;99.90;;;;;;1925524;73;21150;-75
2021/03/06 04:58:31;;;;;;;5.00;2.12;;;-2.20;99.90;;;;;;1920721;72;21128;-74
2021/03/06 05:00:57;;;;;;;2.10;1.90;;;-2.30;99.90;;;;;;1926194;72;21080;-75
2021/03/06 05:03:23;;;;;;;3.00;1.90;;;-2.30;99.90;;;;;;1921404;73;21061;-75
2021/03/06 05:05:50;;;;;;;2.77;1.80;;;-2.40;99.90;;;;;;1920763;73;21175;-73
2021/03/06 05:08:16;;;;;;;1.67;1.57;;;-2.40;99.90;;;;;;1927042;72;21056;-75
2021/03/06 05:10:42;;;;;;;6.37;2.40;;;-2.40;99.90;;;;;;1920851;74;21050;-75
2021/03/06 05:13:08;;;;;;;2.30;1.47;;;-2.50;99.90;;;;;;1930306;72;21068;-75
2021/03/06 05:15:34;;;;;;;1.62;1.52;;;-2.40;99.90;;;;;;1927104;73;21084;-74
2021/03/06 05:18:00;;;;;;;2.02;1.85;;;-2.40;99.90;;;;;;1925609;72;21162;-74
2021/03/06 05:20:26;;;;;;;4.30;2.12;;;-2.40;99.90;;;;;;1923419;73;21092;-74
2021/03/06 05:22:52;;;;;;;1.75;1.65;;;-2.40;99.90;;;;;;1929157;72;21484;-74
2021/03/06 05:25:19;;;;;;;3.15;2.05;;;-2.30;99.90;;;;;;1925588;72;21492;-74
2021/03/06 05:27:45;;;;;;;2.40;1.62;;;-2.40;99.90;;;;;;1929544;73;21550;-73
2021/03/06 05:30:11;;;;;;;2.75;2.20;;;-2.50;99.90;;;;;;1920888;72;21481;-73
2021/03/06 05:32:37;;;;;;;2.33;2.00;;;-2.60;99.90;;;;;;1918019;73;21045;-73
2021/03/06 05:35:03;;;;;;;1.60;1.52;;;-2.50;99.90;;;;;;1931018;72;21085;-75
2021/03/06 05:37:29;;;;;;;2.22;2.05;;;-2.40;99.90;;;;;;1921281;72;21210;-74
2021/03/06 05:39:55;;;;;;;2.30;2.10;;;-2.40;99.90;;;;;;1926729;72;21150;-74
2021/03/06 05:42:23;;;;;;;2.62;1.77;;;-2.40;99.90;;;;;;1931941;73;21080;-74
2021/03/06 05:44:49;;;;;;;2.75;2.30;;;-2.30;99.90;;;;;;1920831;72;21476;-75
2021/03/06 05:47:16;;;;;;;2.80;1.90;;;-2.30;99.90;;;;;;1920868;73;21076;-74
2021/03/06 05:49:42;;;;;;;1.90;1.80;;;-2.30;99.90;;;;;;1916111;73;21081;-75
2021/03/06 05:52:08;;;;;;;3.20;2.37;;;-2.40;99.90;;;;;;1925528;74;21135;-74
2021/03/06 05:54:34;;;;;;;1.98;1.75;;;-2.40;99.90;;;;;;1916178;73;21077;-73
2021/03/06 05:57:00;;;;;;;4.42;2.30;;;-2.50;99.90;;;;;;1928751;72;21116;-73
2021/03/06 05:59:26;;;;;;;3.40;2.47;;;-2.60;99.90;;;;;;1947161;72;21158;-73
2021/03/06 06:01:52;;;;;;;2.77;2.35;;;-2.70;99.90;;;;;;1920713;72;21076;-73
2021/03/06 06:04:19;;;;;;;2.60;2.00;;;-2.70;99.90;;;;;;1921534;73;21077;-73
2021/03/06 06:06:45;;;;;;;1.80;1.70;;;-2.70;99.90;;;;;;1919642;73;21563;-73
2021/03/06 06:09:11;;;;;;;2.15;1.80;;;-2.60;99.90;;;;;;1920896;73;21166;-74
2021/03/06 06:11:39;;;;;;;3.20;1.80;;;-2.70;99.90;;;;;;1925578;73;21069;-73
2021/03/06 06:14:05;;;;;;;3.02;1.70;;;-2.60;99.90;;;;;;1920754;73;21080;-73
2021/03/06 06:16:31;;;;;;;5.72;2.42;;;-2.60;99.90;;;;;;1916061;73;21076;-73
2021/03/06 06:18:57;;;;;;;3.35;1.72;;;-2.50;99.90;;;;;;1933387;73;21080;-72
2021/03/06 06:21:24;;;;;;;3.72;2.27;;;-2.60;99.90;;;;;;1925507;72;21084;-73
2021/03/06 06:23:50;;;;;;;2.50;1.92;;;-2.50;99.90;;;;;;1920858;74;21084;-73
2021/03/06 06:26:16;;;;;;;8.03;2.92;;;-2.50;99.90;;;;;;1916195;73;21076;-73
2021/03/06 06:28:42;;;;;;;3.17;2.33;;;-2.40;99.90;;;;;;1920971;72;21084;-75
2021/03/06 06:31:08;;;;;;;2.75;2.42;;;-2.30;99.90;;;;;;1931278;72;21068;-74
2021/03/06 06:33:35;;;;;;;11.97;2.77;;;-2.30;99.90;;;;;;1926987;72;21504;-74
2021/03/06 06:36:01;;;;;;;5.35;3.17;;;-2.30;99.90;;;;;;1923868;72;21442;-74
2021/03/06 06:38:27;;;;;;;7.15;3.15;;;-2.40;99.90;;;;;;1927595;72;21497;-74
2021/03/06 06:40:53;;;;;;;3.90;2.37;;;-2.30;99.90;;;;;;1932126;72;21528;-74
2021/03/06 06:43:19;;;;;;;3.08;2.35;;;-2.30;99.90;;;;;;1927202;73;21076;-75
2021/03/06 06:45:45;;;;;;;5.78;3.12;;;-2.30;99.90;;;;;;1925558;74;21146;-74
2021/03/06 06:48:11;;;;;;;2.55;2.10;;;-2.30;99.90;;;;;;1929001;72;21034;-73
2021/03/06 06:50:37;;;;;;;7.47;2.72;;;-2.20;99.90;;;;;;1931766;72;21147;-74
2021/03/06 06:53:04;;;;;;;7.75;3.15;;;-2.00;99.90;;;;;;1920750;73;21085;-74
2021/03/06 06:55:30;;;;;;;4.20;2.70;;;-2.00;99.90;;;;;;1927184;72;21142;-74
2021/03/06 06:57:56;;;;;;;5.40;3.00;;;-1.80;99.90;;;;;;1925582;72;21152;-74
2021/03/06 07:00:22;;;;;;;6.22;3.25;;;-1.80;99.90;;;;;;1926192;73;21061;-73
2021/03/06 07:02:48;;;;;;;7.37;3.22;;;-1.70;99.90;;;;;;1920028;74;21150;-75
2021/03/06 07:05:14;;;;;;;11.03;3.33;;;-1.60;99.90;;;;;;1915949;73;21496;-72
2021/03/06 07:07:40;;;;;;;8.33;3.42;;;-1.50;99.90;;;;;;1927214;73;21571;-72
2021/03/06 07:10:07;;;;;;;8.50;3.90;;;-1.50;99.90;;;;;;1910827;73;21489;-74
2021/03/06 07:12:33;;;;;;;5.35;2.87;;;-1.40;99.90;;;;;;1936607;72;21449;-75
2021/03/06 07:14:59;;;;;;;10.25;3.62;;;-1.30;99.90;;;;;;1922293;73;21077;-74
2021/03/06 07:17:25;;;;;;;6.58;3.20;;;-1.30;99.90;;;;;;1923366;72;21092;-75
2021/03/06 07:19:51;;;;;;;10.30;3.30;;;-1.20;99.90;;;;;;1926511;72;21068;-75
2021/03/06 07:22:18;;;;;;;6.55;2.65;;;-1.00;99.90;;;;;;1923294;73;21187;-74
2021/03/06 07:24:44;;;;;;;11.78;2.60;;;-1.00;99.90;;;;;;1920875;74;21045;-74
2021/03/06 07:27:10;;;;;;;6.08;3.47;;;-0.80;99.90;;;;;;1931668;72;21267;-75
2021/03/06 07:29:36;;;;;;;13.80;3.92;;;-0.80;99.90;;;;;;1930397;72;21076;-74
2021/03/06 07:32:02;;;;;;;8.00;3.10;;;-0.70;99.90;;;;;;1925212;72;21092;-76
2021/03/06 07:34:28;;;;;;;4.08;3.08;;;-0.60;99.90;;;;;;1922350;73;21429;-75
2021/03/06 07:36:56;;;;;;;3.95;2.60;;;-0.50;99.90;;;;;;1915892;73;21061;-75
2021/03/06 07:39:22;;;;;;;3.75;2.67;;;-0.30;99.90;;;;;;1920869;72;21199;-75
2021/03/06 07:41:48;;;;;;;3.45;2.65;;;-0.20;99.90;;;;;;1929428;72;21197;-75
2021/03/06 07:44:14;;;;;;;3.67;2.62;;;0.00;99.90;;;;;;1921335;72;21080;-76
2021/03/06 07:46:40;;;;;;;3.37;2.40;;;0.20;99.90;;;;;;1926710;73;21092;-75
2021/03/06 07:49:06;;;;;;;7.60;1.80;;;0.50;99.90;;;;;;1927220;73;21485;-75
2021/03/06 07:51:32;;;;;;;2.22;1.87;;;0.60;99.90;;;;;;1920958;73;21492;-75
2021/03/06 07:53:58;;;;;;;3.42;2.35;;;0.80;99.90;;;;;;1920566;73;21489;-75
2021/03/06 07:56:25;;;;;;;2.75;2.30;;;1.10;99.90;;;;;;1925370;73;21081;-74
2021/03/06 07:58:51;;;;;;;4.80;2.00;;;1.30;99.90;;;;;;1922549;73;21068;-74
2021/03/06 08:01:17;;;;;;;3.17;2.17;;;1.40;99.90;;;;;;1926911;72;21158;-76
2021/03/06 08:03:43;;;;;;;2.67;2.30;;;1.60;99.90;;;;;;1916033;73;21068;-76
2021/03/06 08:06:09;;;;;;;4.35;2.37;;;1.70;99.90;;;;;;1920833;72;21073;-79
2021/03/06 08:08:36;;;;;;;5.35;2.15;;;1.90;99.90;;;;;;1933199;73;21088;-76
2021/03/06 08:11:02;;;;;;;2.17;1.98;;;2.00;99.90;;;;;;1920800;72;21073;-75
2021/03/06 08:13:28;;;;;;;2.95;2.25;;;2.10;99.90;;;;;;1923797;72;21081;-74
2021/03/06 08:15:56;;;;;;;2.83;1.95;;;2.20;99.90;;;;;;1931563;73;21146;-74
2021/03/06 08:18:23;;;;;;;2.47;2.02;;;2.30;99.90;;;;;;1925554;73;21162;-74
2021/03/06 08:20:49;;;;;;;4.08;2.30;;;2.40;99.90;;;;;;1920628;74;21162;-74
2021/03/06 08:23:15;;;;;;;3.20;2.15;;;2.60;99.90;;;;;;1918881;74;21088;-73
2021/03/06 08:25:41;;;;;;;4.33;1.72;;;2.70;99.90;;;;;;1927904;72;21045;-73
2021/03/06 08:28:07;;;;;;;2.33;1.85;;;2.90;99.90;;;;;;1925952;72;21139;-75
2021/03/06 08:30:34;;;;;;;3.83;2.10;;;3.00;99.90;;;;;;1930081;72;21146;-75
2021/03/06 08:33:00;;;;;;;1.87;1.67;;;3.10;99.90;;;;;;1930454;73;21138;-76
2021/03/06 08:35:28;;;;;;;2.17;1.47;;;3.10;99.90;;;;;;1931378;73;21134;-74
2021/03/06 08:37:54;;;;;;;1.52;1.40;;;3.30;99.90;;;;;;1920710;73;21088;-74
2021/03/06 08:40:20;;;;;;;4.67;1.80;;;3.50;99.90;;;;;;1931698;72;21138;-76
2021/03/06 08:42:46;;;;;;;4.65;1.67;;;3.70;99.90;;;;;;1936138;73;21157;-73
2021/03/06 08:45:12;;;;;;;2.15;1.80;;;3.80;99.90;;;;;;1925452;72;21034;-74
2021/03/06 08:47:38;;;;;;;1.55;1.45;;;3.90;99.90;;;;;;1931742;72;21224;-72
2021/03/06 08:50:04;;;;;;;3.75;1.82;;;4.20;99.90;;;;;;1920351;73;21088;-79
2021/03/06 08:52:31;;;;;;;2.58;1.65;;;4.00;99.90;;;;;;1926936;72;21072;-81
2021/03/06 08:54:57;;;;;;;2.22;2.02;;;4.50;99.90;;;;;;1925450;73;21077;-77
2021/03/06 08:57:23;;;;;;;3.65;2.10;;;4.60;99.90;;;;;;1916382;74;21199;-75
2021/03/06 08:59:49;;;;;;;5.60;2.00;;;4.30;99.90;;;;;;1924907;73;21504;-73
2021/03/06 09:02:15;;;;;;;3.65;1.67;;;4.60;99.90;;;;;;1915897;73;21045;-78
2021/03/06 09:04:41;;;;;;;1.60;1.50;;;5.00;99.90;;;;;;1921613;72;21512;-74
2021/03/06 09:07:07;;;;;;;2.55;1.70;;;4.80;99.90;;;;;;1919724;73;21076;-74
2021/03/06 09:09:33;;;;;;;2.02;1.50;;;4.90;99.90;;;;;;1925824;72;21149;-73
2021/03/06 09:12:00;;;;;;;2.42;1.70;;;4.90;99.90;;;;;;1925478;73;21082;-80
2021/03/06 09:14:26;;;;;;;2.50;1.82;;;4.90;99.90;;;;;;1922388;72;21072;-79
2021/03/06 09:16:52;;;;;;;3.40;2.17;;;5.10;99.90;;;;;;1927371;72;21224;-80
2021/03/06 09:19:18;;;;;;;5.55;1.77;;;4.60;99.90;;;;;;1925446;74;21080;-80
2021/03/06 09:21:44;;;;;;;1.47;1.37;;;5.00;99.90;;;;;;1929465;72;21454;-79
2021/03/06 09:24:10;;;;;;;2.08;1.72;;;5.50;99.90;;;;;;1927063;72;21499;-77
2021/03/06 09:26:38;;;;;;;2.92;1.57;;;5.80;99.90;;;;;;1934672;73;21590;-76
2021/03/06 09:29:06;;;;;;;4.40;2.17;;;5.80;99.90;;;;;;1922315;73;21104;-77
2021/03/06 09:31:33;;;;;;;2.55;2.00;;;5.80;99.90;;;;;;1933135;73;21097;-76
2021/03/06 09:33:59;;;;;;;2.60;1.80;;;5.90;99.90;;;;;;1930129;73;21543;-76
2021/03/06 09:36:26;;;;;;;4.42;2.00;;;5.80;99.90;;;;;;1923530;73;21084;-76
2021/03/06 09:38:52;;;;;;;5.35;2.05;;;6.10;99.90;;;;;;1918979;73;21077;-76
2021/03/06 09:41:18;;;;;;;2.42;2.02;;;6.10;99.90;;;;;;1931609;73;21034;-78
2021/03/06 09:43:44;;;;;;;2.65;1.82;;;6.40;99.90;;;;;;1925343;72;21080;-77
2021/03/06 09:46:10;;;;;;;2.37;1.90;;;6.20;99.90;;;;;;1931527;72;21142;-77
2021/03/06 09:48:36;;;;;;;4.00;2.12;;;6.70;99.90;;;;;;1922139;73;21154;-76
2021/03/06 09:51:02;;;;;;;3.30;2.00;;;6.40;99.90;;;;;;1926801;72;21170;-77
2021/03/06 09:53:28;;;;;;;4.62;2.27;;;6.50;99.90;;;;;;1928306;72;21465;-75
2021/03/06 09:55:55;;;;;;;2.05;1.60;;;6.70;99.90;;;;;;1925554;73;21461;-76
2021/03/06 09:58:21;;;;;;;3.00;2.10;;;6.60;99.90;;;;;;1917066;73;21757;-75
2021/03/06 10:00:47;;;;;;;3.00;1.85;;;6.70;99.90;;;;;;1934347;72;21512;-76
2021/03/06 10:03:13;;;;;;;3.67;1.80;;;6.80;99.90;;;;;;1925972;72;21080;-76
2021/03/06 10:05:39;;;;;;;2.75;1.92;;;7.20;99.90;;;;;;1925358;72;21146;-76
2021/03/06 10:08:05;;;;;;;2.37;2.02;;;7.80;98.90;;;;;;1925495;72;21049;-79
2021/03/06 10:10:31;;;;;;;4.17;2.10;;;7.50;96.70;;;;;;1920917;72;21061;-78
2021/03/06 10:12:57;;;;;;;3.62;1.82;;;7.40;96.30;;;;;;1936950;72;21068;-80
2021/03/06 10:15:23;;;;;;;5.90;2.12;;;7.50;96.90;;;;;;1925012;72;21072;-78
2021/03/06 10:17:50;;;;;;;2.92;1.95;;;7.50;94.50;;;;;;1944223;72;21166;-73
2021/03/06 10:20:16;;;;;;;3.55;2.08;;;7.30;93.90;;;;;;1920648;74;21077;-73
2021/03/06 10:22:42;;;;;;;4.35;2.05;;;7.20;94.70;;;;;;1920636;74;21080;-71
2021/03/06 10:25:08;;;;;;;5.62;1.80;;;7.20;94.90;;;;;;1921980;72;21073;-78
2021/03/06 10:27:34;;;;;;;7.25;1.80;;;7.60;94.50;;;;;;1920560;73;21072;-76
2021/03/06 10:30:00;;;;;;;2.65;1.70;;;7.80;93.50;;;;;;1918288;72;21076;-76
2021/03/06 10:32:26;;;;;;;2.47;1.90;;;8.20;92.60;;;;;;1925237;72;21227;-78
2021/03/06 10:34:58;;;;;;;3.80;1.92;;;8.00;91.90;;;;;;1922251;73;21442;-76
2021/03/06 10:37:20;;;;;;;1.72;1.40;;;7.90;91.90;;;;;;1929610;72;21170;-75
2021/03/06 10:39:46;;;;;;;2.90;1.70;;;8.60;92.10;;;;;;1926859;72;21445;-78
2021/03/06 10:42:13;;;;;;;2.50;1.77;;;8.70;90.50;;;;;;1920405;73;21569;-74
2021/03/06 10:44:39;;;;;;;5.00;1.60;;;9.00;90.40;;;;;;1930040;72;21076;-77
2021/03/06 10:47:05;;;;;;;1.95;1.30;;;8.80;88.50;;;;;;1920476;73;21076;-76
2021/03/06 10:49:31;;;;;;;2.42;1.47;;;8.50;86.10;;;;;;1922249;73;21136;-76
2021/03/06 10:51:59;;;;;;;8.70;1.85;;;8.70;86.80;;;;;;1935112;73;21077;-77
2021/03/06 10:54:25;;;;;;;2.85;1.50;;;8.80;84.70;;;;;;1923143;72;21401;-77
2021/03/06 10:56:51;;;;;;;1.87;1.62;;;9.00;84.60;;;;;;1931674;73;21215;-77
2021/03/06 10:59:17;;;;;;;2.95;1.72;;;9.00;84.30;;;;;;1925405;73;21069;-75
2021/03/06 11:01:43;;;;;;;2.52;1.75;;;9.20;82.80;;;;;;1926855;72;21076;-74
2021/03/06 11:04:09;;;;;;;5.35;1.77;;;8.70;78.30;;;;;;1915898;73;21073;-75
2021/03/06 11:06:35;;;;;;;1.57;1.40;;;8.20;82.90;;;;;;1920607;72;21038;-75
2021/03/06 11:09:02;;;;;;;1.52;1.20;;;8.10;82.50;;;;;;1915917;73;21084;-75
2021/03/06 11:11:28;;;;;;;3.17;1.60;;;8.40;81.70;;;;;;1925318;74;21146;-75
2021/03/06 11:13:54;;;;;;;1.32;1.25;;;8.70;81.40;;;;;;1930596;73;21081;-75
2021/03/06 11:16:20;;;;;;;1.72;1.52;;;9.20;77.80;;;;;;1919642;73;21073;-74
2021/03/06 11:18:46;;;;;;;2.10;1.45;;;9.80;77.80;;;;;;1929651;72;21080;-73
2021/03/06 11:21:13;;;;;;;1.22;1.10;;;9.80;73.80;;;;;;1932519;72;21049;-73
2021/03/06 11:23:39;;;;;;;1.17;1.07;;;10.10;70.70;;;;;;1915466;73;21061;-73
2021/03/06 11:26:05;;;;;;;2.37;1.17;;;10.70;68.40;;;;;;1920144;73;21111;-73
2021/03/06 11:28:31;;;;;;;3.00;0.93;;;10.70;62.90;;;;;;1931034;72;21128;-72
2021/03/06 11:30:59;;;;;;;7.75;1.22;;;10.00;59.80;;;;;;1920096;73;21077;-74
2021/03/06 11:33:25;;;;;;;1.12;0.93;;;9.90;60.40;;;;;;1920054;72;21216;-70
2021/03/06 11:35:51;;;;;;;2.00;1.10;;;10.00;58.90;;;;;;1943699;72;21147;-74
2021/03/06 11:38:18;;;;;;;2.35;1.02;;;10.10;60.60;;;;;;1933580;73;21084;-75
2021/03/06 11:40:44;;;;;;;7.87;1.50;;;10.30;59.50;;;;;;1917413;73;21143;-77
2021/03/06 11:43:10;;;;;;;0.85;0.85;;;10.20;58.70;;;;;;1920119;72;21154;-73
2021/03/06 11:45:36;;;;;;;1.10;0.90;;;9.60;58.10;;;;;;1932221;74;21149;-72
2021/03/06 11:48:02;;;;;;;1.40;1.17;;;10.00;57.50;;;;;;1928517;73;21150;-72
2021/03/06 11:50:28;;;;;;;6.78;1.05;;;10.80;57.30;;;;;;1926336;73;21132;-73
2021/03/06 11:52:54;;;;;;;1.55;0.78;;;10.60;57.30;;;;;;1926397;73;21150;-72
2021/03/06 11:55:21;;;;;;;1.32;1.20;;;10.70;54.90;;;;;;1920036;73;21312;-72
2021/03/06 11:57:48;;;;;;;2.27;1.20;;;11.00;56.30;;;;;;1924977;73;21450;-71
2021/03/06 12:00:14;;;;;;;2.12;1.15;;;10.80;54.60;;;;;;1927316;73;21095;-72
2021/03/06 12:02:40;;;;;;;1.17;1.00;;;11.00;54.00;;;;;;1928719;72;21354;-73
2021/03/06 12:05:06;;;;;;;4.30;1.60;;;11.00;56.50;;;;;;1931037;72;21068;-70
2021/03/06 12:07:32;;;;;;;2.30;1.60;;;11.20;60.20;;;;;;1915858;73;21119;-70
2021/03/06 12:09:59;;;;;;;3.85;1.62;;;11.30;59.40;;;;;;1920154;73;21116;-72
2021/03/06 12:12:25;;;;;;;1.87;1.27;;;11.40;61.40;;;;;;1924837;73;21087;-73
2021/03/06 12:14:51;;;;;;;1.25;1.15;;;10.20;64.00;;;;;;1920100;74;21160;-73
2021/03/06 12:17:17;;;;;;;4.70;1.37;;;11.00;62.40;;;;;;1926555;72;21045;-73
2021/03/06 12:19:43;;;;;;;9.05;1.55;;;10.50;63.50;;;;;;1924887;72;21088;-73
2021/03/06 12:22:09;;;;;;;9.40;1.62;;;9.90;64.80;;;;;;1921704;73;21500;-75
2021/03/06 12:24:35;;;;;;;5.58;1.37;;;10.30;63.90;;;;;;1922866;73;21551;-73
2021/03/06 12:27:01;;;;;;;1.27;1.17;;;11.00;63.30;;;;;;1934704;72;21469;-74
2021/03/06 12:29:27;;;;;;;2.27;1.60;;;10.90;62.60;;;;;;1924775;72;21608;-73
2021/03/06 12:31:54;;;;;;;2.05;1.20;;;11.40;61.30;;;;;;1923895;72;21550;-74
2021/03/06 12:34:20;;;;;;;2.50;1.47;;;11.20;61.30;;;;;;1923960;73;21078;-74
2021/03/06 12:36:46;;;;;;;2.02;0.90;;;11.50;62.50;;;;;;1924824;74;21158;-73
2021/03/06 12:39:12;;;;;;;2.75;0.95;;;12.30;58.20;;;;;;1924857;73;21045;-73
2021/03/06 12:41:38;;;;;;;3.05;1.30;;;12.50;55.60;;;;;;1920182;73;21076;-73
2021/03/06 12:44:04;;;;;;;3.77;0.98;;;12.00;59.10;;;;;;1920099;73;21150;-75